Time;durP1;ratioP1;P1;durP2;ratioP2;P2;SDS_P1;SDS_P2;PMS_P1;PMS_P2;Temp;Humidity;BMP_temperature;BMP_pressure;BME280_temperature;BME280_humidity;BME280_pressure;Samples;Min_cycle;Max_cycle;Signal;HPM_P1;HPM_P2
2021/11/04 00:00:16;;;;;;;34.17;26.80;;;;;;;;;;2131418;27;20061;-45
2021/11/04 00:01:17;;;;;;;36.90;24.05;;;;;;;;;;2129160;27;20428;-45
2021/11/04 00:02:18;;;;;;;31.50;21.40;;;;;;;;;;2130915;27;20046;-45
2021/11/04 00:03:19;;;;;;;35.25;23.52;;;;;;;;;;2129708;27;20086;-44
2021/11/04 00:04:25;;;;;;;29.98;21.25;;;;;;;;;;2129019;27;20471;-45
2021/11/04 00:05:25;;;;;;;28.25;19.65;;;;;;;;;;2130898;27;20100;-44
2021/11/04 00:06:27;;;;;;;36.43;24.43;;;;;;;;;;2131197;27;20051;-44
2021/11/04 00:07:28;;;;;;;37.97;27.27;;;;;;;;;;2128772;27;20130;-46
2021/11/04 00:08:30;;;;;;;31.45;22.33;;;;;;;;;;2129941;27;20133;-45
2021/11/04 00:09:31;;;;;;;31.65;21.80;;;;;;;;;;2131240;27;20183;-44
2021/11/04 00:10:32;;;;;;;30.35;20.48;;;;;;;;;;2127050;27;20127;-44
2021/11/04 00:11:33;;;;;;;26.40;19.60;;;;;;;;;;2131240;27;20236;-45
2021/11/04 00:12:35;;;;;;;33.10;21.87;;;;;;;;;;2131308;27;20452;-45
2021/11/04 00:13:36;;;;;;;29.73;21.38;;;;;;;;;;2128939;27;20074;-45
2021/11/04 00:14:37;;;;;;;28.63;19.05;;;;;;;;;;2131212;27;20039;-45
2021/11/04 00:15:38;;;;;;;30.70;21.58;;;;;;;;;;2131356;27;20043;-45
2021/11/04 00:16:39;;;;;;;31.90;22.85;;;;;;;;;;2127562;27;20457;-45
2021/11/04 00:17:41;;;;;;;33.37;21.90;;;;;;;;;;2131185;27;20051;-44
2021/11/04 00:18:41;;;;;;;;;;;;;;;;;;2131567;27;20046;-44
2021/11/04 00:19:42;;;;;;;31.52;20.23;;;;;;;;;;2127567;27;19934;-45
2021/11/04 00:20:43;;;;;;;33.33;20.50;;;;;;;;;;2131140;27;20138;-45
2021/11/04 00:21:44;;;;;;;34.03;22.52;;;;;;;;;;2130651;27;20049;-45
2021/11/04 00:22:47;;;;;;;34.28;24.27;;;;;;;;;;2128026;27;20050;-45
2021/11/04 00:23:49;;;;;;;30.55;20.83;;;;;;;;;;2131317;27;20042;-45
2021/11/04 00:24:50;;;;;;;27.40;20.58;;;;;;;;;;2130180;27;20042;-45
2021/11/04 00:25:51;;;;;;;28.20;20.15;;;;;;;;;;2128628;27;20121;-46
2021/11/04 00:26:52;;;;;;;29.48;19.85;;;;;;;;;;2131260;27;20047;-45
2021/11/04 00:27:53;;;;;;;26.65;19.05;;;;;;;;;;2129579;27;20480;-46
2021/11/04 00:28:56;;;;;;;27.63;19.65;;;;;;;;;;2130343;27;20444;-45
2021/11/04 00:29:57;;;;;;;30.80;21.38;;;;;;;;;;2131685;27;20513;-44
2021/11/04 00:30:59;;;;;;;28.08;20.38;;;;;;;;;;2130535;27;20163;-45
2021/11/04 00:32:00;;;;;;;30.27;21.73;;;;;;;;;;2130945;27;20541;-45
2021/11/04 00:33:01;;;;;;;28.33;19.98;;;;;;;;;;2132761;27;20121;-46
2021/11/04 00:34:02;;;;;;;33.30;22.65;;;;;;;;;;2129877;27;20133;-46
2021/11/04 00:35:04;;;;;;;31.60;21.77;;;;;;;;;;2132058;27;20368;-44
2021/11/04 00:36:05;;;;;;;30.95;22.08;;;;;;;;;;2132747;27;20051;-44
2021/11/04 00:37:06;;;;;;;30.40;21.80;;;;;;;;;;2129010;27;20043;-45
2021/11/04 00:38:08;;;;;;;29.67;20.88;;;;;;;;;;2132336;27;20538;-44
2021/11/04 00:39:09;;;;;;;29.48;21.48;;;;;;;;;;2132698;27;20206;-45
2021/11/04 00:40:11;;;;;;;31.08;22.05;;;;;;;;;;2130253;27;20043;-45
2021/11/04 00:41:12;;;;;;;29.02;20.45;;;;;;;;;;2131607;27;20459;-46
2021/11/04 00:42:13;;;;;;;29.03;20.00;;;;;;;;;;2132730;27;20115;-45
2021/11/04 00:43:15;;;;;;;30.63;21.05;;;;;;;;;;2129471;27;20182;-45
2021/11/04 00:44:16;;;;;;;32.30;22.85;;;;;;;;;;2132477;27;20137;-46
2021/11/04 00:45:17;;;;;;;34.13;23.90;;;;;;;;;;2132606;27;20042;-45
2021/11/04 00:46:18;;;;;;;33.88;21.40;;;;;;;;;;2128978;27;20038;-46
2021/11/04 00:47:19;;;;;;;32.47;23.00;;;;;;;;;;2132553;27;20485;-45
2021/11/04 00:48:20;;;;;;;32.88;23.10;;;;;;;;;;2132564;27;20220;-44
2021/11/04 00:49:21;;;;;;;31.50;21.83;;;;;;;;;;2128970;27;20158;-45
2021/11/04 00:50:24;;;;;;;36.55;25.73;;;;;;;;;;2132607;27;20126;-44
2021/11/04 00:51:25;;;;;;;35.50;24.70;;;;;;;;;;2132148;27;20054;-44
2021/11/04 00:52:26;;;;;;;31.05;21.80;;;;;;;;;;2129225;27;20139;-45
2021/11/04 00:53:28;;;;;;;34.50;23.50;;;;;;;;;;2132676;27;20171;-44
2021/11/04 00:54:29;;;;;;;31.05;22.88;;;;;;;;;;2131905;27;20047;-45
2021/11/04 00:55:30;;;;;;;33.08;23.10;;;;;;;;;;2129573;27;20045;-46
2021/11/04 00:56:31;;;;;;;39.05;23.30;;;;;;;;;;2132582;27;20074;-48
2021/11/04 00:57:49;;;;;;;40.13;26.50;;;;;;;;;;2131035;27;20085;-45
2021/11/04 00:58:50;;;;;;;35.60;24.58;;;;;;;;;;2096939;28;20127;-45
2021/11/04 00:59:51;;;;;;;39.65;27.95;;;;;;;;;;2097651;28;20048;-45
2021/11/04 01:00:52;;;;;;;40.30;27.38;;;;;;;;;;2094142;28;20139;-45
2021/11/04 01:01:53;;;;;;;39.75;26.38;;;;;;;;;;2096975;28;20486;-47
2021/11/04 01:02:54;;;;;;;36.53;22.67;;;;;;;;;;2096106;28;20056;-45
2021/11/04 01:03:55;;;;;;;39.60;25.05;;;;;;;;;;2095208;28;20489;-45
2021/11/04 01:04:56;;;;;;;34.53;23.58;;;;;;;;;;2090114;28;20132;-46
2021/11/04 01:05:57;;;;;;;32.40;23.87;;;;;;;;;;2089176;28;20048;-45
2021/11/04 01:06:58;;;;;;;35.85;23.48;;;;;;;;;;2092332;28;20045;-47
2021/11/04 01:07:59;;;;;;;44.20;29.05;;;;;;;;;;2097155;28;20584;-44
2021/11/04 01:09:01;;;;;;;35.13;24.38;;;;;;;;;;2097606;28;20132;-45
2021/11/04 01:10:02;;;;;;;39.20;25.50;;;;;;;;;;2093848;28;20555;-45
2021/11/04 01:11:03;;;;;;;40.63;28.33;;;;;;;;;;2097536;28;20127;-44
2021/11/04 01:12:05;;;;;;;47.55;28.20;;;;;;;;;;2097504;28;20626;-46
2021/11/04 01:13:06;;;;;;;52.30;31.38;;;;;;;;;;2093827;28;20123;-44
2021/11/04 01:14:07;;;;;;;51.75;33.53;;;;;;;;;;2097554;28;20078;-45
2021/11/04 01:15:08;;;;;;;50.65;32.33;;;;;;;;;;2096984;28;20052;-46
2021/11/04 01:16:09;;;;;;;50.35;31.85;;;;;;;;;;2094392;28;20058;-45
2021/11/04 01:17:11;;;;;;;43.42;28.05;;;;;;;;;;2097305;28;20545;-45
2021/11/04 01:18:12;;;;;;;38.70;26.95;;;;;;;;;;2097037;28;20083;-45
2021/11/04 01:19:14;;;;;;;44.63;28.50;;;;;;;;;;2094476;28;20056;-45
2021/11/04 01:20:15;;;;;;;40.25;25.85;;;;;;;;;;2097399;28;20500;-46
2021/11/04 01:21:17;;;;;;;36.92;26.40;;;;;;;;;;2095951;28;20496;-45
2021/11/04 01:22:20;;;;;;;43.78;24.58;;;;;;;;;;2095458;28;20044;-45
2021/11/04 01:23:21;;;;;;;41.97;27.00;;;;;;;;;;2099075;27;20460;-44
2021/11/04 01:24:23;;;;;;;43.70;27.52;;;;;;;;;;2130174;27;20080;-45
2021/11/04 01:25:24;;;;;;;39.30;26.98;;;;;;;;;;2130737;27;20133;-46
2021/11/04 01:26:25;;;;;;;43.92;28.75;;;;;;;;;;2132341;27;20046;-45
2021/11/04 01:27:26;;;;;;;42.05;28.48;;;;;;;;;;2128238;27;20039;-45
2021/11/04 01:28:27;;;;;;;46.25;26.77;;;;;;;;;;2131338;27;20043;-45
2021/11/04 01:29:28;;;;;;;42.85;27.80;;;;;;;;;;2132246;27;20051;-45
2021/11/04 01:30:29;;;;;;;43.17;28.38;;;;;;;;;;2128990;27;20172;-45
2021/11/04 01:31:30;;;;;;;47.25;26.08;;;;;;;;;;2131105;27;20414;-44
2021/11/04 01:32:31;;;;;;;42.78;28.33;;;;;;;;;;2132161;27;20586;-44
2021/11/04 01:33:32;;;;;;;44.45;30.73;;;;;;;;;;2130029;27;20051;-45
2021/11/04 01:34:32;;;;;;;44.10;29.27;;;;;;;;;;2131036;27;20049;-47
2021/11/04 01:35:36;;;;;;;40.83;27.98;;;;;;;;;;2132242;27;20042;-46
2021/11/04 01:36:36;;;;;;;48.50;28.58;;;;;;;;;;2128779;27;20129;-46
2021/11/04 01:37:38;;;;;;;46.93;27.73;;;;;;;;;;2131926;27;20381;-46
2021/11/04 01:38:38;;;;;;;47.05;29.38;;;;;;;;;;2132383;27;20125;-45
2021/11/04 01:39:41;;;;;;;45.33;28.90;;;;;;;;;;2128551;27;20581;-44
2021/11/04 01:40:41;;;;;;;43.03;28.30;;;;;;;;;;2132226;27;20650;-45
2021/11/04 01:41:43;;;;;;;44.93;30.57;;;;;;;;;;2131230;27;20054;-45
2021/11/04 01:42:44;;;;;;;46.85;30.02;;;;;;;;;;2128574;27;20042;-45
2021/11/04 01:43:45;;;;;;;46.78;30.15;;;;;;;;;;2132207;27;20051;-45
2021/11/04 01:44:46;;;;;;;43.80;27.83;;;;;;;;;;2131597;27;20482;-46
2021/11/04 01:45:47;;;;;;;36.20;25.63;;;;;;;;;;2129057;27;20255;-46
2021/11/04 01:46:49;;;;;;;38.08;27.10;;;;;;;;;;2132093;27;20121;-44
2021/11/04 01:47:51;;;;;;;39.33;26.08;;;;;;;;;;2131834;27;20147;-44
2021/11/04 01:48:52;;;;;;;36.67;26.63;;;;;;;;;;2128991;27;20047;-44
2021/11/04 01:49:53;;;;;;;42.33;27.67;;;;;;;;;;2132201;27;20399;-45
2021/11/04 01:50:55;;;;;;;37.37;25.30;;;;;;;;;;2131608;27;20057;-45
2021/11/04 01:51:55;;;;;;;36.85;26.38;;;;;;;;;;2130252;27;20183;-45
2021/11/04 01:52:57;;;;;;;37.70;26.30;;;;;;;;;;2132281;27;20114;-46
2021/11/04 01:53:58;;;;;;;36.20;25.17;;;;;;;;;;2130174;27;20756;-45
2021/11/04 01:54:59;;;;;;;42.77;29.03;;;;;;;;;;2130668;27;20042;-44
2021/11/04 01:56:00;;;;;;;42.65;29.77;;;;;;;;;;2131964;27;20107;-45
2021/11/04 01:57:02;;;;;;;38.65;25.65;;;;;;;;;;2130082;27;20483;-45
2021/11/04 01:58:03;;;;;;;47.40;29.42;;;;;;;;;;2130540;27;20043;-44
2021/11/04 01:59:04;;;;;;;39.38;27.13;;;;;;;;;;2132261;27;20073;-45
2021/11/04 02:00:06;;;;;;;42.42;27.45;;;;;;;;;;2129399;27;20051;-45
2021/11/04 02:01:07;;;;;;;38.72;26.60;;;;;;;;;;2131518;27;20050;-45
2021/11/04 02:02:14;;;;;;;37.78;27.38;;;;;;;;;;2131969;27;20495;-46
2021/11/04 02:03:18;;;;;;;43.35;27.85;;;;;;;;;;2127210;27;20080;-45
2021/11/04 02:04:22;;;;;;;41.20;25.67;;;;;;;;;;2131264;27;20081;-45
2021/11/04 02:05:27;;;;;;;38.42;26.23;;;;;;;;;;2132169;27;20483;-46
2021/11/04 02:06:32;;;;;;;36.38;24.63;;;;;;;;;;2128461;27;20402;-45
2021/11/04 02:07:37;;;;;;;35.60;24.05;;;;;;;;;;2123506;28;20047;-47
2021/11/04 02:08:41;;;;;;;34.13;24.67;;;;;;;;;;2124178;27;20544;-45
2021/11/04 02:09:45;;;;;;;41.25;28.35;;;;;;;;;;2129592;27;20042;-45
2021/11/04 02:10:50;;;;;;;39.75;26.15;;;;;;;;;;2132081;27;20126;-46
2021/11/04 02:11:52;;;;;;;37.40;26.05;;;;;;;;;;2129858;27;20478;-45
2021/11/04 02:12:58;;;;;;;34.72;24.55;;;;;;;;;;2130619;27;20138;-44
2021/11/04 02:14:00;;;;;;;39.53;25.65;;;;;;;;;;2131999;27;20126;-45
2021/11/04 02:15:01;;;;;;;38.65;24.88;;;;;;;;;;2129695;27;20488;-45
2021/11/04 02:16:04;;;;;;;40.33;27.75;;;;;;;;;;2131678;27;20047;-47
2021/11/04 02:17:06;;;;;;;41.33;29.45;;;;;;;;;;2132019;27;20129;-46
2021/11/04 02:18:08;;;;;;;35.65;26.83;;;;;;;;;;2128498;27;20042;-45
2021/11/04 02:19:16;;;;;;;38.50;26.63;;;;;;;;;;2131798;27;20126;-45
2021/11/04 02:20:21;;;;;;;38.35;27.60;;;;;;;;;;2131903;27;20482;-45
2021/11/04 02:21:31;;;;;;;35.03;25.58;;;;;;;;;;2127564;27;20039;-45
2021/11/04 02:22:42;;;;;;;38.25;26.60;;;;;;;;;;2131860;27;20508;-46
2021/11/04 02:23:48;;;;;;;37.35;25.05;;;;;;;;;;2129986;27;20125;-48
2021/11/04 02:24:56;;;;;;;39.25;26.45;;;;;;;;;;2130548;27;20050;-45
2021/11/04 02:25:57;;;;;;;37.08;24.73;;;;;;;;;;2132122;27;20125;-44
2021/11/04 02:26:59;;;;;;;35.47;24.38;;;;;;;;;;2128348;27;20130;-45
2021/11/04 02:28:02;;;;;;;39.15;26.45;;;;;;;;;;2130853;27;20090;-45
2021/11/04 02:29:03;;;;;;;34.65;24.58;;;;;;;;;;2131922;27;20117;-45
2021/11/04 02:30:05;;;;;;;41.78;28.50;;;;;;;;;;2128343;27;20054;-46
2021/11/04 02:31:07;;;;;;;39.50;25.98;;;;;;;;;;2123233;28;20415;-44
2021/11/04 02:32:09;;;;;;;36.20;26.35;;;;;;;;;;2123241;28;20043;-45
2021/11/04 02:33:10;;;;;;;;;;;;;;;;;;2128410;27;20122;-45
2021/11/04 02:34:10;;;;;;;39.63;26.73;;;;;;;;;;2132001;27;19919;-45
2021/11/04 02:35:13;;;;;;;36.07;25.27;;;;;;;;;;2131554;27;20047;-44
2021/11/04 02:36:15;;;;;;;34.45;24.60;;;;;;;;;;2128683;27;20141;-46
2021/11/04 02:37:17;;;;;;;43.38;27.63;;;;;;;;;;2131799;27;20137;-44
2021/11/04 02:38:19;;;;;;;38.90;26.73;;;;;;;;;;2131283;27;20129;-45
2021/11/04 02:39:20;;;;;;;40.97;27.88;;;;;;;;;;2128389;27;20483;-45
2021/11/04 02:40:22;;;;;;;41.88;28.48;;;;;;;;;;2131763;27;20054;-44
2021/11/04 02:41:23;;;;;;;;;;;;;;;;;;2130926;27;20122;-45
2021/11/04 02:42:24;;;;;;;34.38;24.42;;;;;;;;;;2129811;27;20298;-47
2021/11/04 02:43:27;;;;;;;41.33;24.60;;;;;;;;;;2131827;27;20411;-45
2021/11/04 02:44:28;;;;;;;38.67;26.92;;;;;;;;;;2129646;27;20818;-45
2021/11/04 02:45:29;;;;;;;39.30;25.15;;;;;;;;;;2130152;27;20091;-45
2021/11/04 02:46:30;;;;;;;37.17;24.75;;;;;;;;;;2131906;27;20125;-44
2021/11/04 02:47:31;;;;;;;36.88;25.42;;;;;;;;;;2129495;27;20664;-45
2021/11/04 02:48:32;;;;;;;37.75;26.42;;;;;;;;;;2131525;27;20047;-45
2021/11/04 02:49:35;;;;;;;36.95;24.48;;;;;;;;;;2131756;27;20053;-46
2021/11/04 02:50:36;;;;;;;36.25;23.80;;;;;;;;;;2128259;27;20500;-46
2021/11/04 02:51:38;;;;;;;35.92;24.63;;;;;;;;;;2131447;27;20153;-45
2021/11/04 02:52:39;;;;;;;35.53;23.90;;;;;;;;;;2131462;27;20125;-46
2021/11/04 02:53:43;;;;;;;31.33;22.73;;;;;;;;;;2128516;27;20047;-45
2021/11/04 02:54:49;;;;;;;38.47;25.27;;;;;;;;;;2130997;27;20126;-46
2021/11/04 02:55:51;;;;;;;39.20;25.98;;;;;;;;;;2131699;27;20050;-45
2021/11/04 02:56:52;;;;;;;;;;;;;;;;;;2128589;27;20172;-46
2021/11/04 02:57:53;;;;;;;34.63;23.35;;;;;;;;;;2131750;27;20424;-45
2021/11/04 02:58:58;;;;;;;36.00;24.55;;;;;;;;;;2131685;27;20065;-47
2021/11/04 02:59:59;;;;;;;35.20;24.33;;;;;;;;;;2127755;27;20039;-45
2021/11/04 03:01:03;;;;;;;34.93;22.37;;;;;;;;;;2131653;27;20412;-45
2021/11/04 03:02:04;;;;;;;37.65;24.90;;;;;;;;;;2130848;27;20100;-46
2021/11/04 03:03:05;;;;;;;35.63;26.10;;;;;;;;;;2127622;27;20047;-45
2021/11/04 03:04:06;;;;;;;36.45;25.42;;;;;;;;;;2131756;27;20047;-47
2021/11/04 03:05:07;;;;;;;39.38;27.75;;;;;;;;;;2130140;27;20174;-45
2021/11/04 03:06:09;;;;;;;36.08;25.13;;;;;;;;;;2126894;27;20045;-46
2021/11/04 03:07:10;;;;;;;;;;;;;;;;;;2123501;28;20081;-45
2021/11/04 03:08:11;;;;;;;32.90;24.77;;;;;;;;;;2124210;27;19951;-45
2021/11/04 03:09:13;;;;;;;35.58;26.33;;;;;;;;;;2130214;27;20038;-45
2021/11/04 03:10:13;;;;;;;35.05;23.77;;;;;;;;;;2131574;27;20073;-45
2021/11/04 03:11:15;;;;;;;32.17;23.35;;;;;;;;;;2129267;27;20039;-46
2021/11/04 03:12:16;;;;;;;38.88;26.70;;;;;;;;;;2130424;27;20130;-44
2021/11/04 03:13:17;;;;;;;38.78;27.95;;;;;;;;;;2131735;27;20050;-44
2021/11/04 03:14:18;;;;;;;40.85;27.83;;;;;;;;;;2128343;27;20563;-45
2021/11/04 03:15:20;;;;;;;36.10;25.42;;;;;;;;;;2131216;27;20046;-46
2021/11/04 03:16:21;;;;;;;42.10;29.13;;;;;;;;;;2131572;27;20057;-45
2021/11/04 03:17:22;;;;;;;37.65;26.63;;;;;;;;;;2128114;27;20049;-45
2021/11/04 03:18:23;;;;;;;42.42;29.48;;;;;;;;;;2131364;27;20043;-44
2021/11/04 03:19:26;;;;;;;44.72;28.40;;;;;;;;;;2131704;27;20062;-45
2021/11/04 03:20:27;;;;;;;39.65;27.30;;;;;;;;;;2127989;27;20121;-46
2021/11/04 03:21:30;;;;;;;39.28;26.92;;;;;;;;;;2131361;27;20283;-46
2021/11/04 03:22:31;;;;;;;36.67;26.48;;;;;;;;;;2131556;27;20111;-46
2021/11/04 03:23:32;;;;;;;40.17;27.50;;;;;;;;;;2127932;27;20129;-44
2021/11/04 03:24:34;;;;;;;36.65;26.25;;;;;;;;;;2131647;27;20129;-45
2021/11/04 03:25:35;;;;;;;43.90;29.13;;;;;;;;;;2131550;27;20175;-45
2021/11/04 03:26:38;;;;;;;38.97;28.27;;;;;;;;;;2127735;27;20173;-45
2021/11/04 03:27:40;;;;;;;45.20;29.30;;;;;;;;;;2131502;27;20121;-46
2021/11/04 03:28:41;;;;;;;42.25;28.88;;;;;;;;;;2130942;27;20071;-45
2021/11/04 03:29:43;;;;;;;45.92;29.30;;;;;;;;;;2128282;27;20570;-45
2021/11/04 03:30:44;;;;;;;39.65;26.15;;;;;;;;;;2131411;27;20125;-45
2021/11/04 03:31:46;;;;;;;39.45;27.73;;;;;;;;;;2130646;27;20050;-46
2021/11/04 03:32:47;;;;;;;36.83;25.17;;;;;;;;;;2130043;27;20042;-44
2021/11/04 03:33:49;;;;;;;43.30;28.67;;;;;;;;;;2131554;27;20108;-44
2021/11/04 03:34:50;;;;;;;35.15;24.77;;;;;;;;;;2129355;27;20470;-45
2021/11/04 03:35:52;;;;;;;36.10;24.70;;;;;;;;;;2129977;27;20043;-45
2021/11/04 03:36:53;;;;;;;41.15;28.63;;;;;;;;;;2131382;27;20210;-46
2021/11/04 03:37:54;;;;;;;39.63;26.13;;;;;;;;;;2129260;27;20042;-45
2021/11/04 03:38:56;;;;;;;37.30;26.15;;;;;;;;;;2129954;27;20134;-45
2021/11/04 03:39:57;;;;;;;36.28;25.35;;;;;;;;;;2131544;27;20046;-44
2021/11/04 03:40:59;;;;;;;39.63;28.05;;;;;;;;;;2129188;27;20138;-46
2021/11/04 03:41:59;;;;;;;;;;;;;;;;;;2130459;27;20046;-45
2021/11/04 03:43:02;;;;;;;40.83;29.23;;;;;;;;;;2131370;27;19919;-46
2021/11/04 03:44:04;;;;;;;36.03;25.27;;;;;;;;;;2127961;27;20528;-44
2021/11/04 03:45:06;;;;;;;41.13;27.05;;;;;;;;;;2130652;27;20097;-45
2021/11/04 03:46:07;;;;;;;39.05;25.60;;;;;;;;;;2131332;27;20049;-46
2021/11/04 03:47:09;;;;;;;39.75;27.40;;;;;;;;;;2128464;27;20396;-45
2021/11/04 03:48:10;;;;;;;44.75;29.92;;;;;;;;;;2130838;27;20045;-46
2021/11/04 03:49:13;;;;;;;41.78;28.17;;;;;;;;;;2131508;27;20134;-45
2021/11/04 03:50:14;;;;;;;41.22;27.92;;;;;;;;;;2127692;27;20076;-45
2021/11/04 03:51:16;;;;;;;40.88;27.17;;;;;;;;;;2131373;27;20696;-46
2021/11/04 03:52:17;;;;;;;43.20;29.13;;;;;;;;;;2131332;27;20145;-46
2021/11/04 03:53:18;;;;;;;37.95;26.77;;;;;;;;;;2127244;27;20517;-45
2021/11/04 03:54:22;;;;;;;46.13;27.33;;;;;;;;;;2131395;27;20133;-44
2021/11/04 03:55:26;;;;;;;42.72;29.50;;;;;;;;;;2130800;27;20129;-45
2021/11/04 03:56:27;;;;;;;37.97;25.02;;;;;;;;;;2128082;27;20488;-45
2021/11/04 03:57:28;;;;;;;39.47;26.30;;;;;;;;;;2131150;27;20384;-45
2021/11/04 03:58:30;;;;;;;40.70;27.02;;;;;;;;;;2130158;27;20126;-46
2021/11/04 03:59:31;;;;;;;46.38;30.48;;;;;;;;;;2129080;27;20042;-47
2021/11/04 04:00:32;;;;;;;39.73;27.47;;;;;;;;;;2131319;27;20103;-45
2021/11/04 04:01:34;;;;;;;39.88;26.25;;;;;;;;;;2129149;27;20419;-46
2021/11/04 04:02:35;;;;;;;38.70;26.75;;;;;;;;;;2129810;27;20231;-45
2021/11/04 04:03:36;;;;;;;37.63;25.33;;;;;;;;;;2129809;27;20070;-45
2021/11/04 04:04:38;;;;;;;36.53;24.40;;;;;;;;;;2127036;27;20039;-45
2021/11/04 04:05:39;;;;;;;;;;;;;;;;;;2130549;27;20047;-46
2021/11/04 04:06:40;;;;;;;38.53;26.10;;;;;;;;;;2131249;27;19974;-44
2021/11/04 04:07:43;;;;;;;39.20;25.80;;;;;;;;;;2128225;27;20051;-45
2021/11/04 04:08:45;;;;;;;38.58;25.65;;;;;;;;;;2129820;27;20038;-45
2021/11/04 04:09:48;;;;;;;38.33;26.55;;;;;;;;;;2131401;27;20118;-44
2021/11/04 04:10:49;;;;;;;34.70;25.52;;;;;;;;;;2126428;27;20183;-45
2021/11/04 04:11:51;;;;;;;38.78;27.05;;;;;;;;;;2130189;27;20125;-44
2021/11/04 04:12:52;;;;;;;37.90;25.95;;;;;;;;;;2131366;27;20121;-46
2021/11/04 04:13:55;;;;;;;36.88;26.48;;;;;;;;;;2127972;27;20153;-45
2021/11/04 04:14:56;;;;;;;37.30;25.08;;;;;;;;;;2122624;28;20452;-45
2021/11/04 04:15:57;;;;;;;39.58;26.92;;;;;;;;;;2122538;28;20486;-44
2021/11/04 04:16:58;;;;;;;38.13;26.23;;;;;;;;;;2127144;27;20499;-46
2021/11/04 04:17:59;;;;;;;40.60;26.30;;;;;;;;;;2122705;28;20126;-45
2021/11/04 04:19:01;;;;;;;37.80;25.65;;;;;;;;;;2122820;28;20044;-46
2021/11/04 04:20:02;;;;;;;38.33;26.23;;;;;;;;;;2126682;27;20122;-46
2021/11/04 04:21:03;;;;;;;41.58;27.65;;;;;;;;;;2131354;27;20047;-45
2021/11/04 04:22:04;;;;;;;40.83;26.92;;;;;;;;;;2130658;27;20184;-45
2021/11/04 04:23:05;;;;;;;38.92;25.58;;;;;;;;;;2128222;27;20362;-44
2021/11/04 04:24:06;;;;;;;37.30;26.00;;;;;;;;;;2131174;27;20570;-45
2021/11/04 04:25:08;;;;;;;37.83;26.07;;;;;;;;;;2130629;27;20147;-45
2021/11/04 04:26:08;;;;;;;41.50;26.80;;;;;;;;;;2126506;27;20130;-44
2021/11/04 04:27:11;;;;;;;38.97;26.00;;;;;;;;;;2122565;28;20488;-45
2021/11/04 04:28:12;;;;;;;36.17;26.33;;;;;;;;;;2124234;27;20047;-46
2021/11/04 04:29:13;;;;;;;41.30;26.10;;;;;;;;;;2129431;27;20122;-45
2021/11/04 04:30:15;;;;;;;36.30;25.25;;;;;;;;;;2131310;27;20134;-44
2021/11/04 04:31:15;;;;;;;42.38;27.98;;;;;;;;;;2129062;27;20138;-45
2021/11/04 04:32:17;;;;;;;44.05;29.90;;;;;;;;;;2129531;27;20137;-45
2021/11/04 04:33:17;;;;;;;40.13;27.20;;;;;;;;;;2131105;27;20439;-46
2021/11/04 04:34:19;;;;;;;41.27;27.13;;;;;;;;;;2129217;27;20096;-45
2021/11/04 04:35:20;;;;;;;38.50;26.27;;;;;;;;;;2125405;27;20039;-45
2021/11/04 04:36:21;;;;;;;39.30;27.48;;;;;;;;;;2122565;28;20079;-45
2021/11/04 04:37:22;;;;;;;39.67;26.85;;;;;;;;;;2124213;27;20043;-46
2021/11/04 04:38:23;;;;;;;38.70;25.80;;;;;;;;;;2130668;27;20551;-45
2021/11/04 04:39:24;;;;;;;40.92;28.23;;;;;;;;;;2131108;27;20043;-45
2021/11/04 04:40:25;;;;;;;38.75;25.55;;;;;;;;;;2127641;27;20144;-45
2021/11/04 04:41:26;;;;;;;36.40;24.55;;;;;;;;;;2130815;27;20042;-45
2021/11/04 04:42:27;;;;;;;35.28;25.58;;;;;;;;;;2131013;27;20130;-45
2021/11/04 04:43:28;;;;;;;39.30;26.83;;;;;;;;;;2127727;27;20043;-44
2021/11/04 04:44:30;;;;;;;35.17;25.70;;;;;;;;;;2130941;27;20049;-46
2021/11/04 04:45:31;;;;;;;38.25;27.20;;;;;;;;;;2131048;27;20150;-45
2021/11/04 04:46:32;;;;;;;39.13;26.98;;;;;;;;;;2127542;27;20403;-45
2021/11/04 04:47:34;;;;;;;40.03;27.03;;;;;;;;;;2130888;27;20046;-46
2021/11/04 04:48:34;;;;;;;39.80;27.42;;;;;;;;;;2131141;27;20071;-45
2021/11/04 04:49:35;;;;;;;40.20;27.27;;;;;;;;;;2128657;27;20042;-45
2021/11/04 04:50:37;;;;;;;42.03;27.97;;;;;;;;;;2131055;27;20046;-45
2021/11/04 04:51:38;;;;;;;43.88;26.85;;;;;;;;;;2131159;27;20315;-46
2021/11/04 04:52:41;;;;;;;38.75;25.75;;;;;;;;;;2127030;27;20045;-45
2021/11/04 04:53:42;;;;;;;36.78;25.15;;;;;;;;;;2130984;27;20035;-44
2021/11/04 04:54:43;;;;;;;37.95;26.30;;;;;;;;;;2129833;27;20081;-45
2021/11/04 04:55:44;;;;;;;41.38;27.45;;;;;;;;;;2127326;27;20441;-45
2021/11/04 04:56:45;;;;;;;41.10;28.38;;;;;;;;;;2130874;27;20090;-44
2021/11/04 04:57:46;;;;;;;38.20;26.60;;;;;;;;;;2130211;27;20087;-45
2021/11/04 04:58:47;;;;;;;39.15;28.70;;;;;;;;;;2128253;27;20130;-44
2021/11/04 04:59:48;;;;;;;40.88;26.95;;;;;;;;;;2131106;27;20535;-46
2021/11/04 05:00:50;;;;;;;38.85;26.88;;;;;;;;;;2129613;27;20122;-45
2021/11/04 05:01:51;;;;;;;33.97;25.23;;;;;;;;;;2129099;27;20427;-49
2021/11/04 05:02:52;;;;;;;42.63;29.35;;;;;;;;;;2129650;27;20131;-49
2021/11/04 05:03:53;;;;;;;40.30;27.43;;;;;;;;;;2128923;27;20046;-51
2021/11/04 05:04:54;;;;;;;40.42;26.70;;;;;;;;;;2129325;27;20172;-49
2021/11/04 05:05:55;;;;;;;41.93;29.60;;;;;;;;;;2131014;27;20564;-49
2021/11/04 05:06:56;;;;;;;43.42;28.38;;;;;;;;;;2128710;27;20384;-52
2021/11/04 05:07:57;;;;;;;39.00;26.43;;;;;;;;;;2129599;27;20043;-50
2021/11/04 05:08:59;;;;;;;42.03;27.80;;;;;;;;;;2130957;27;20110;-52
2021/11/04 05:10:01;;;;;;;42.40;28.70;;;;;;;;;;2128132;27;20042;-52
2021/11/04 05:11:02;;;;;;;36.42;26.00;;;;;;;;;;2129614;27;20534;-52
2021/11/04 05:12:04;;;;;;;41.07;27.37;;;;;;;;;;2130914;27;20047;-49
2021/11/04 05:13:04;;;;;;;40.47;28.17;;;;;;;;;;2128687;27;20072;-49
2021/11/04 05:14:06;;;;;;;40.60;27.77;;;;;;;;;;2129753;27;20137;-52
2021/11/04 05:15:07;;;;;;;40.85;25.80;;;;;;;;;;2130914;27;20547;-53
2021/11/04 05:16:11;;;;;;;41.45;27.20;;;;;;;;;;2127346;27;20035;-53
2021/11/04 05:17:12;;;;;;;42.15;28.17;;;;;;;;;;2131742;27;20050;-48
2021/11/04 05:18:13;;;;;;;40.67;28.42;;;;;;;;;;2132313;27;20043;-50
2021/11/04 05:19:14;;;;;;;39.95;28.35;;;;;;;;;;2128768;27;20160;-53
2021/11/04 05:20:16;;;;;;;43.17;29.33;;;;;;;;;;2132379;27;20046;-51
2021/11/04 05:21:17;;;;;;;43.72;27.52;;;;;;;;;;2132504;27;20121;-52
2021/11/04 05:22:18;;;;;;;38.88;27.75;;;;;;;;;;2128587;27;20051;-49
2021/11/04 05:23:19;;;;;;;40.87;28.13;;;;;;;;;;2132505;27;20126;-50
2021/11/04 05:24:20;;;;;;;41.47;26.50;;;;;;;;;;2131898;27;20834;-50
2021/11/04 05:25:21;;;;;;;38.65;26.73;;;;;;;;;;2130383;27;20042;-51
2021/11/04 05:26:22;;;;;;;37.55;26.67;;;;;;;;;;2132478;27;20372;-49
2021/11/04 05:27:23;;;;;;;39.03;25.73;;;;;;;;;;2131741;27;20065;-48
2021/11/04 05:28:24;;;;;;;44.67;29.73;;;;;;;;;;2130324;27;20130;-49
2021/11/04 05:29:27;;;;;;;43.40;29.97;;;;;;;;;;2132252;27;20051;-49
2021/11/04 05:30:28;;;;;;;43.97;29.40;;;;;;;;;;2131293;27;20137;-50
2021/11/04 05:31:29;;;;;;;41.40;27.95;;;;;;;;;;2130064;27;20070;-50
2021/11/04 05:32:30;;;;;;;41.65;28.95;;;;;;;;;;2132420;27;20102;-49
2021/11/04 05:33:32;;;;;;;46.30;28.77;;;;;;;;;;2130224;27;20059;-52
2021/11/04 05:34:33;;;;;;;39.17;26.92;;;;;;;;;;2131962;27;20057;-52
2021/11/04 05:35:34;;;;;;;41.17;28.65;;;;;;;;;;2132417;27;20497;-52
2021/11/04 05:36:35;;;;;;;39.22;26.63;;;;;;;;;;2130120;27;20543;-49
2021/11/04 05:37:36;;;;;;;39.63;28.25;;;;;;;;;;2131774;27;20505;-50
2021/11/04 05:38:37;;;;;;;40.63;27.20;;;;;;;;;;2132204;27;20818;-51
2021/11/04 05:39:38;;;;;;;42.50;28.67;;;;;;;;;;2129541;27;20043;-52
2021/11/04 05:40:39;;;;;;;41.40;28.73;;;;;;;;;;2131604;27;20071;-52
2021/11/04 05:41:40;;;;;;;45.55;27.17;;;;;;;;;;2132345;27;20070;-49
2021/11/04 05:42:41;;;;;;;38.73;26.80;;;;;;;;;;2128530;27;20098;-49
2021/11/04 05:43:43;;;;;;;40.85;28.55;;;;;;;;;;2132023;27;20130;-50
2021/11/04 05:44:43;;;;;;;40.83;29.75;;;;;;;;;;2132257;27;20039;-52
2021/11/04 05:45:45;;;;;;;38.47;27.60;;;;;;;;;;2128974;27;20432;-49
2021/11/04 05:46:46;;;;;;;38.08;26.88;;;;;;;;;;2131051;27;20070;-49
2021/11/04 05:47:47;;;;;;;40.93;28.80;;;;;;;;;;2132188;27;20050;-50
2021/11/04 05:48:48;;;;;;;40.58;28.52;;;;;;;;;;2128398;27;20141;-53
2021/11/04 05:49:49;;;;;;;44.33;30.48;;;;;;;;;;2131948;27;20046;-49
2021/11/04 05:50:50;;;;;;;38.35;26.90;;;;;;;;;;2132185;27;20483;-48
2021/11/04 05:51:51;;;;;;;45.63;31.30;;;;;;;;;;2128552;27;20130;-51
2021/11/04 05:52:52;;;;;;;43.72;29.75;;;;;;;;;;2132292;27;20306;-54
2021/11/04 05:53:53;;;;;;;44.47;31.58;;;;;;;;;;2132200;27;20145;-53
2021/11/04 05:54:56;;;;;;;42.47;28.00;;;;;;;;;;2127357;27;20491;-50
2021/11/04 05:55:57;;;;;;;41.30;29.00;;;;;;;;;;2132042;27;20481;-49
2021/11/04 05:56:58;;;;;;;45.80;29.57;;;;;;;;;;2130223;27;20042;-50
2021/11/04 05:57:59;;;;;;;45.78;31.13;;;;;;;;;;2129612;27;20130;-50
2021/11/04 05:59:00;;;;;;;50.28;31.25;;;;;;;;;;2132069;27;20086;-49